Terminal Aerodrome Forecast
Issued by NWS

Home | Current Version | Previous Version | Graphics & Text | Print | Product List | Glossary On
Versions: 1 2 3 4 5 6 7 8 9 10 11 12 13 14 15 16
000
FTUS41 KCLE 151120
TAFFDY
TAF
KFDY 151120Z 1512/1612 16010KT P6SM OVC090
     FM151700 20015G25KT P6SM -SHRA OVC080
     FM152100 21015G25KT 4SM -SHRA BR OVC007
     FM160000 24015G25KT P6SM OVC007
     FM160200 25015G25KT P6SM OVC015
     FM160600 27012KT P6SM OVC025=

USA.gov is the U.S. government's official web portal to all federal, state and local government web resources and services.